sensor_id;sensor_type;location;lat;lon;timestamp;temperature;humidity
62363;DHT22;48396;48.426;1.500;2022-09-01T00:01:01;25.30;52.70
62363;DHT22;48396;48.426;1.500;2022-09-01T00:03:27;25.30;52.70
62363;DHT22;48396;48.426;1.500;2022-09-01T00:05:53;25.30;52.80
62363;DHT22;48396;48.426;1.500;2022-09-01T00:08:21;25.30;52.90
62363;DHT22;48396;48.426;1.500;2022-09-01T00:10:47;25.20;52.90
62363;DHT22;48396;48.426;1.500;2022-09-01T00:13:14;25.20;53.00
62363;DHT22;48396;48.426;1.500;2022-09-01T00:15:39;25.10;53.10
62363;DHT22;48396;48.426;1.500;2022-09-01T00:18:05;25.10;53.40
62363;DHT22;48396;48.426;1.500;2022-09-01T00:20:31;25.10;53.40
62363;DHT22;48396;48.426;1.500;2022-09-01T00:22:57;25.00;53.50
62363;DHT22;48396;48.426;1.500;2022-09-01T00:25:25;25.00;53.60
62363;DHT22;48396;48.426;1.500;2022-09-01T00:30:36;25.00;53.80
62363;DHT22;48396;48.426;1.500;2022-09-01T00:33:01;24.90;53.90
62363;DHT22;48396;48.426;1.500;2022-09-01T00:35:27;24.90;53.90
62363;DHT22;48396;48.426;1.500;2022-09-01T00:37:52;24.90;53.90
62363;DHT22;48396;48.426;1.500;2022-09-01T00:40:18;24.80;54.00
62363;DHT22;48396;48.426;1.500;2022-09-01T00:42:44;24.80;54.20
62363;DHT22;48396;48.426;1.500;2022-09-01T00:45:10;24.80;54.20
62363;DHT22;48396;48.426;1.500;2022-09-01T00:47:36;24.80;54.30
62363;DHT22;48396;48.426;1.500;2022-09-01T00:50:03;24.70;54.20
62363;DHT22;48396;48.426;1.500;2022-09-01T00:52:34;24.80;54.30
62363;DHT22;48396;48.426;1.500;2022-09-01T00:55:06;24.70;54.20
62363;DHT22;48396;48.426;1.500;2022-09-01T00:57:34;24.70;54.30
62363;DHT22;48396;48.426;1.500;2022-09-01T01:00:04;24.70;54.40
62363;DHT22;48396;48.426;1.500;2022-09-01T01:02:31;24.60;54.60
62363;DHT22;48396;48.426;1.500;2022-09-01T01:04:56;24.60;54.60
62363;DHT22;48396;48.426;1.500;2022-09-01T01:07:23;24.60;54.70
62363;DHT22;48396;48.426;1.500;2022-09-01T01:09:51;24.50;54.70
62363;DHT22;48396;48.426;1.500;2022-09-01T01:12:17;24.60;54.80
62363;DHT22;48396;48.426;1.500;2022-09-01T01:14:44;24.60;55.00
62363;DHT22;48396;48.426;1.500;2022-09-01T01:17:12;24.50;54.90
62363;DHT22;48396;48.426;1.500;2022-09-01T01:19:41;24.50;55.10
62363;DHT22;48396;48.426;1.500;2022-09-01T01:25:10;24.40;55.30
62363;DHT22;48396;48.426;1.500;2022-09-01T01:27:37;24.30;55.40
62363;DHT22;48396;48.426;1.500;2022-09-01T01:30:03;24.30;55.50
62363;DHT22;48396;48.426;1.500;2022-09-01T01:32:29;24.30;55.50
62363;DHT22;48396;48.426;1.500;2022-09-01T01:34:55;24.30;55.50
62363;DHT22;48396;48.426;1.500;2022-09-01T01:37:21;24.30;55.60
62363;DHT22;48396;48.426;1.500;2022-09-01T01:39:50;24.30;55.70
62363;DHT22;48396;48.426;1.500;2022-09-01T01:42:15;24.30;56.60
62363;DHT22;48396;48.426;1.500;2022-09-01T01:44:41;24.20;56.00
62363;DHT22;48396;48.426;1.500;2022-09-01T01:47:09;24.10;56.10
62363;DHT22;48396;48.426;1.500;2022-09-01T01:49:37;24.10;56.10
62363;DHT22;48396;48.426;1.500;2022-09-01T01:52:06;24.10;56.20
62363;DHT22;48396;48.426;1.500;2022-09-01T01:54:31;24.00;56.40
62363;DHT22;48396;48.426;1.500;2022-09-01T01:56:58;24.00;56.40
62363;DHT22;48396;48.426;1.500;2022-09-01T01:59:24;24.00;56.40
62363;DHT22;48396;48.426;1.500;2022-09-01T02:01:50;24.00;56.50
62363;DHT22;48396;48.426;1.500;2022-09-01T02:04:17;24.00;56.40
62363;DHT22;48396;48.426;1.500;2022-09-01T02:06:44;24.00;56.50
62363;DHT22;48396;48.426;1.500;2022-09-01T02:09:11;23.90;56.70
62363;DHT22;48396;48.426;1.500;2022-09-01T02:11:37;23.90;57.00
62363;DHT22;48396;48.426;1.500;2022-09-01T02:14:03;23.90;56.90
62363;DHT22;48396;48.426;1.500;2022-09-01T02:16:29;23.80;57.10
62363;DHT22;48396;48.426;1.500;2022-09-01T02:18:56;23.80;57.20
62363;DHT22;48396;48.426;1.500;2022-09-01T02:21:22;23.70;57.10
62363;DHT22;48396;48.426;1.500;2022-09-01T02:23:50;23.70;57.40
62363;DHT22;48396;48.426;1.500;2022-09-01T02:26:23;23.80;57.20
62363;DHT22;48396;48.426;1.500;2022-09-01T02:29:00;23.80;57.20
62363;DHT22;48396;48.426;1.500;2022-09-01T02:31:32;23.70;57.20
62363;DHT22;48396;48.426;1.500;2022-09-01T02:34:00;23.70;57.10
62363;DHT22;48396;48.426;1.500;2022-09-01T02:36:26;23.70;57.30
62363;DHT22;48396;48.426;1.500;2022-09-01T02:38:52;23.70;57.30
62363;DHT22;48396;48.426;1.500;2022-09-01T02:41:18;23.60;57.40
62363;DHT22;48396;48.426;1.500;2022-09-01T02:43:47;23.70;57.50
62363;DHT22;48396;48.426;1.500;2022-09-01T02:46:13;23.60;57.40
62363;DHT22;48396;48.426;1.500;2022-09-01T02:48:40;23.60;58.00
62363;DHT22;48396;48.426;1.500;2022-09-01T02:51:08;23.60;57.90
62363;DHT22;48396;48.426;1.500;2022-09-01T02:53:34;23.50;57.70
62363;DHT22;48396;48.426;1.500;2022-09-01T02:56:01;23.50;57.80
62363;DHT22;48396;48.426;1.500;2022-09-01T02:58:30;23.50;57.80
62363;DHT22;48396;48.426;1.500;2022-09-01T03:00:58;23.50;57.90
62363;DHT22;48396;48.426;1.500;2022-09-01T03:03:24;23.50;58.00
62363;DHT22;48396;48.426;1.500;2022-09-01T03:05:50;23.40;58.10
62363;DHT22;48396;48.426;1.500;2022-09-01T03:08:22;23.40;58.10
62363;DHT22;48396;48.426;1.500;2022-09-01T03:10:49;23.40;58.30
62363;DHT22;48396;48.426;1.500;2022-09-01T03:13:18;23.40;58.30
62363;DHT22;48396;48.426;1.500;2022-09-01T03:15:45;23.40;58.20
62363;DHT22;48396;48.426;1.500;2022-09-01T03:18:11;23.40;58.30
62363;DHT22;48396;48.426;1.500;2022-09-01T03:20:37;23.40;58.50
62363;DHT22;48396;48.426;1.500;2022-09-01T03:23:04;23.30;58.50
62363;DHT22;48396;48.426;1.500;2022-09-01T03:25:32;23.30;58.60
62363;DHT22;48396;48.426;1.500;2022-09-01T03:27:58;23.30;58.50
62363;DHT22;48396;48.426;1.500;2022-09-01T03:30:26;23.30;58.80
62363;DHT22;48396;48.426;1.500;2022-09-01T03:32:53;23.30;58.80
62363;DHT22;48396;48.426;1.500;2022-09-01T03:35:18;23.30;58.80
62363;DHT22;48396;48.426;1.500;2022-09-01T03:37:44;23.30;58.90
62363;DHT22;48396;48.426;1.500;2022-09-01T03:40:11;23.30;59.00
62363;DHT22;48396;48.426;1.500;2022-09-01T03:42:37;23.30;59.10
62363;DHT22;48396;48.426;1.500;2022-09-01T03:45:03;23.20;59.20
62363;DHT22;48396;48.426;1.500;2022-09-01T03:47:36;23.20;59.30
62363;DHT22;48396;48.426;1.500;2022-09-01T03:50:08;23.20;59.30
62363;DHT22;48396;48.426;1.500;2022-09-01T03:52:47;23.10;59.30
62363;DHT22;48396;48.426;1.500;2022-09-01T03:55:16;23.20;59.30
62363;DHT22;48396;48.426;1.500;2022-09-01T03:57:50;23.20;59.30
62363;DHT22;48396;48.426;1.500;2022-09-01T04:00:17;23.20;59.40
62363;DHT22;48396;48.426;1.500;2022-09-01T04:02:45;23.10;59.60
62363;DHT22;48396;48.426;1.500;2022-09-01T04:05:11;23.10;59.90
62363;DHT22;48396;48.426;1.500;2022-09-01T04:07:37;23.00;59.90
62363;DHT22;48396;48.426;1.500;2022-09-01T04:10:03;23.00;59.80
62363;DHT22;48396;48.426;1.500;2022-09-01T04:14:58;22.90;60.30
62363;DHT22;48396;48.426;1.500;2022-09-01T04:17:24;22.90;60.50
62363;DHT22;48396;48.426;1.500;2022-09-01T04:20:08;22.70;60.90
62363;DHT22;48396;48.426;1.500;2022-09-01T04:22:34;22.70;60.90
62363;DHT22;48396;48.426;1.500;2022-09-01T04:25:03;22.50;62.40
62363;DHT22;48396;48.426;1.500;2022-09-01T04:27:29;22.40;62.20
62363;DHT22;48396;48.426;1.500;2022-09-01T04:29:54;22.40;62.50
62363;DHT22;48396;48.426;1.500;2022-09-01T04:32:21;22.30;62.80
62363;DHT22;48396;48.426;1.500;2022-09-01T04:34:48;22.30;62.60
62363;DHT22;48396;48.426;1.500;2022-09-01T04:37:18;22.30;62.10
62363;DHT22;48396;48.426;1.500;2022-09-01T04:39:49;22.30;62.60
62363;DHT22;48396;48.426;1.500;2022-09-01T04:42:17;22.20;62.90
62363;DHT22;48396;48.426;1.500;2022-09-01T04:44:43;22.10;63.10
62363;DHT22;48396;48.426;1.500;2022-09-01T04:47:11;22.00;63.30
62363;DHT22;48396;48.426;1.500;2022-09-01T04:49:39;22.00;63.00
62363;DHT22;48396;48.426;1.500;2022-09-01T04:52:05;22.00;63.20
62363;DHT22;48396;48.426;1.500;2022-09-01T04:54:31;22.00;63.20
62363;DHT22;48396;48.426;1.500;2022-09-01T04:56:57;22.00;63.00
62363;DHT22;48396;48.426;1.500;2022-09-01T04:59:23;21.90;63.10
62363;DHT22;48396;48.426;1.500;2022-09-01T05:01:51;21.90;63.60
62363;DHT22;48396;48.426;1.500;2022-09-01T05:04:20;21.80;63.80
62363;DHT22;48396;48.426;1.500;2022-09-01T05:06:48;21.80;64.00
62363;DHT22;48396;48.426;1.500;2022-09-01T05:09:13;21.60;65.00
62363;DHT22;48396;48.426;1.500;2022-09-01T05:11:41;21.60;64.80
62363;DHT22;48396;48.426;1.500;2022-09-01T05:14:10;21.70;65.20
62363;DHT22;48396;48.426;1.500;2022-09-01T05:16:36;21.70;64.80
62363;DHT22;48396;48.426;1.500;2022-09-01T05:19:05;21.70;65.00
62363;DHT22;48396;48.426;1.500;2022-09-01T05:21:31;21.80;64.50
62363;DHT22;48396;48.426;1.500;2022-09-01T05:23:58;21.70;65.20
62363;DHT22;48396;48.426;1.500;2022-09-01T05:26:27;21.70;65.50
62363;DHT22;48396;48.426;1.500;2022-09-01T05:28:54;21.70;65.00
62363;DHT22;48396;48.426;1.500;2022-09-01T05:31:21;21.80;64.90
62363;DHT22;48396;48.426;1.500;2022-09-01T05:33:47;21.70;65.50
62363;DHT22;48396;48.426;1.500;2022-09-01T05:36:15;21.60;66.10
62363;DHT22;48396;48.426;1.500;2022-09-01T05:38:42;21.60;65.40
62363;DHT22;48396;48.426;1.500;2022-09-01T05:41:09;21.70;65.60
62363;DHT22;48396;48.426;1.500;2022-09-01T05:43:35;21.70;65.30
62363;DHT22;48396;48.426;1.500;2022-09-01T05:46:05;21.70;65.80
62363;DHT22;48396;48.426;1.500;2022-09-01T05:48:31;21.70;65.50
62363;DHT22;48396;48.426;1.500;2022-09-01T05:50:59;21.70;65.40
62363;DHT22;48396;48.426;1.500;2022-09-01T05:53:28;21.70;65.30
62363;DHT22;48396;48.426;1.500;2022-09-01T05:55:55;21.80;65.30
62363;DHT22;48396;48.426;1.500;2022-09-01T05:58:23;21.80;65.10
62363;DHT22;48396;48.426;1.500;2022-09-01T06:00:49;21.90;65.10
62363;DHT22;48396;48.426;1.500;2022-09-01T06:03:16;21.80;65.10
62363;DHT22;48396;48.426;1.500;2022-09-01T06:05:42;21.90;64.90
62363;DHT22;48396;48.426;1.500;2022-09-01T06:08:09;21.80;64.90
62363;DHT22;48396;48.426;1.500;2022-09-01T06:10:38;21.90;65.00
62363;DHT22;48396;48.426;1.500;2022-09-01T06:13:06;21.90;65.10
62363;DHT22;48396;48.426;1.500;2022-09-01T06:15:34;21.90;65.00
62363;DHT22;48396;48.426;1.500;2022-09-01T06:18:04;22.00;65.00
62363;DHT22;48396;48.426;1.500;2022-09-01T06:20:30;22.00;65.10
62363;DHT22;48396;48.426;1.500;2022-09-01T06:22:56;22.00;64.90
62363;DHT22;48396;48.426;1.500;2022-09-01T06:25:23;22.00;64.90
62363;DHT22;48396;48.426;1.500;2022-09-01T06:27:55;22.10;65.10
62363;DHT22;48396;48.426;1.500;2022-09-01T06:30:21;22.10;65.10
62363;DHT22;48396;48.426;1.500;2022-09-01T06:32:49;22.10;65.50
62363;DHT22;48396;48.426;1.500;2022-09-01T06:35:16;22.10;65.30
62363;DHT22;48396;48.426;1.500;2022-09-01T06:37:43;22.10;65.40
62363;DHT22;48396;48.426;1.500;2022-09-01T06:40:14;22.10;65.30
62363;DHT22;48396;48.426;1.500;2022-09-01T06:42:48;22.20;65.40
62363;DHT22;48396;48.426;1.500;2022-09-01T06:45:15;22.30;65.30
62363;DHT22;48396;48.426;1.500;2022-09-01T06:47:42;22.30;65.30
62363;DHT22;48396;48.426;1.500;2022-09-01T06:50:10;22.30;65.10
62363;DHT22;48396;48.426;1.500;2022-09-01T06:52:37;22.30;65.20
62363;DHT22;48396;48.426;1.500;2022-09-01T06:55:05;22.20;65.10
62363;DHT22;48396;48.426;1.500;2022-09-01T06:57:31;22.20;65.50
62363;DHT22;48396;48.426;1.500;2022-09-01T06:59:56;22.10;65.60
62363;DHT22;48396;48.426;1.500;2022-09-01T07:02:22;22.10;66.10
62363;DHT22;48396;48.426;1.500;2022-09-01T07:04:49;22.10;66.00
62363;DHT22;48396;48.426;1.500;2022-09-01T07:07:16;22.10;66.10
62363;DHT22;48396;48.426;1.500;2022-09-01T07:09:41;22.10;65.90
62363;DHT22;48396;48.426;1.500;2022-09-01T07:12:08;22.10;66.40
62363;DHT22;48396;48.426;1.500;2022-09-01T07:14:34;22.10;66.40
62363;DHT22;48396;48.426;1.500;2022-09-01T07:16:59;22.20;66.50
62363;DHT22;48396;48.426;1.500;2022-09-01T07:19:25;22.10;66.80
62363;DHT22;48396;48.426;1.500;2022-09-01T07:21:51;22.10;66.80
62363;DHT22;48396;48.426;1.500;2022-09-01T07:24:17;22.20;67.00
62363;DHT22;48396;48.426;1.500;2022-09-01T07:26:43;22.20;67.00
62363;DHT22;48396;48.426;1.500;2022-09-01T07:29:10;22.20;67.00
62363;DHT22;48396;48.426;1.500;2022-09-01T07:31:40;22.30;67.20
62363;DHT22;48396;48.426;1.500;2022-09-01T07:34:09;22.30;67.30
62363;DHT22;48396;48.426;1.500;2022-09-01T07:36:34;22.30;67.10
62363;DHT22;48396;48.426;1.500;2022-09-01T07:39:02;22.40;67.30
62363;DHT22;48396;48.426;1.500;2022-09-01T07:41:28;22.30;67.10
62363;DHT22;48396;48.426;1.500;2022-09-01T07:43:54;22.40;67.30
62363;DHT22;48396;48.426;1.500;2022-09-01T07:46:21;22.40;67.50
62363;DHT22;48396;48.426;1.500;2022-09-01T07:48:48;22.50;67.30
62363;DHT22;48396;48.426;1.500;2022-09-01T07:51:16;22.60;67.30
62363;DHT22;48396;48.426;1.500;2022-09-01T07:53:43;22.70;67.30
62363;DHT22;48396;48.426;1.500;2022-09-01T07:56:10;22.70;67.20
62363;DHT22;48396;48.426;1.500;2022-09-01T07:58:36;22.80;67.30
62363;DHT22;48396;48.426;1.500;2022-09-01T08:01:10;22.90;67.20
62363;DHT22;48396;48.426;1.500;2022-09-01T08:03:36;22.90;67.30
62363;DHT22;48396;48.426;1.500;2022-09-01T08:06:03;23.00;67.50
62363;DHT22;48396;48.426;1.500;2022-09-01T08:08:31;23.00;68.00
62363;DHT22;48396;48.426;1.500;2022-09-01T08:10:56;23.00;67.80
62363;DHT22;48396;48.426;1.500;2022-09-01T08:13:22;23.20;67.60
62363;DHT22;48396;48.426;1.500;2022-09-01T08:15:48;23.30;67.30
62363;DHT22;48396;48.426;1.500;2022-09-01T08:18:14;23.20;68.10
62363;DHT22;48396;48.426;1.500;2022-09-01T08:20:40;23.10;68.70
62363;DHT22;48396;48.426;1.500;2022-09-01T08:23:10;23.00;68.70
62363;DHT22;48396;48.426;1.500;2022-09-01T08:25:36;23.10;69.50
62363;DHT22;48396;48.426;1.500;2022-09-01T08:28:02;23.30;69.10
62363;DHT22;48396;48.426;1.500;2022-09-01T08:30:28;23.50;68.60
62363;DHT22;48396;48.426;1.500;2022-09-01T08:32:54;23.60;68.20
62363;DHT22;48396;48.426;1.500;2022-09-01T08:35:20;23.70;67.90
62363;DHT22;48396;48.426;1.500;2022-09-01T08:37:45;23.70;67.80
62363;DHT22;48396;48.426;1.500;2022-09-01T08:40:12;23.70;67.80
62363;DHT22;48396;48.426;1.500;2022-09-01T08:47:42;23.90;67.50
62363;DHT22;48396;48.426;1.500;2022-09-01T08:50:10;24.00;67.60
62363;DHT22;48396;48.426;1.500;2022-09-01T08:52:44;24.00;67.70
62363;DHT22;48396;48.426;1.500;2022-09-01T08:55:25;24.00;68.00
62363;DHT22;48396;48.426;1.500;2022-09-01T08:57:53;24.10;68.20
62363;DHT22;48396;48.426;1.500;2022-09-01T09:00:23;24.10;68.10
62363;DHT22;48396;48.426;1.500;2022-09-01T09:10:25;24.40;67.80
62363;DHT22;48396;48.426;1.500;2022-09-01T09:12:59;24.40;67.60
62363;DHT22;48396;48.426;1.500;2022-09-01T09:18:36;24.50;67.40
62363;DHT22;48396;48.426;1.500;2022-09-01T09:21:27;24.60;67.20
62363;DHT22;48396;48.426;1.500;2022-09-01T09:23:54;24.70;67.10
62363;DHT22;48396;48.426;1.500;2022-09-01T09:26:21;24.70;67.10
62363;DHT22;48396;48.426;1.500;2022-09-01T09:28:47;24.70;66.90
62363;DHT22;48396;48.426;1.500;2022-09-01T09:34:28;24.70;67.00
62363;DHT22;48396;48.426;1.500;2022-09-01T09:37:42;24.80;67.60
62363;DHT22;48396;48.426;1.500;2022-09-01T09:39:42;24.80;67.00
62363;DHT22;48396;48.426;1.500;2022-09-01T09:42:09;24.80;67.00
62363;DHT22;48396;48.426;1.500;2022-09-01T09:44:42;24.80;67.10
62363;DHT22;48396;48.426;1.500;2022-09-01T09:47:10;24.90;67.00
62363;DHT22;48396;48.426;1.500;2022-09-01T09:49:35;24.90;66.90
62363;DHT22;48396;48.426;1.500;2022-09-01T09:54:28;25.10;69.90
62363;DHT22;48396;48.426;1.500;2022-09-01T09:57:28;25.30;68.20
62363;DHT22;48396;48.426;1.500;2022-09-01T10:02:21;25.50;66.80
62363;DHT22;48396;48.426;1.500;2022-09-01T10:04:48;25.60;66.50
62363;DHT22;48396;48.426;1.500;2022-09-01T10:09:48;25.90;66.30
62363;DHT22;48396;48.426;1.500;2022-09-01T10:12:14;26.00;66.10
62363;DHT22;48396;48.426;1.500;2022-09-01T10:14:41;26.10;65.70
62363;DHT22;48396;48.426;1.500;2022-09-01T10:17:15;26.20;64.90
62363;DHT22;48396;48.426;1.500;2022-09-01T10:19:58;26.10;64.90
62363;DHT22;48396;48.426;1.500;2022-09-01T10:22:29;26.10;64.90
62363;DHT22;48396;48.426;1.500;2022-09-01T10:24:55;26.20;64.80
62363;DHT22;48396;48.426;1.500;2022-09-01T10:27:22;26.30;64.60
62363;DHT22;48396;48.426;1.500;2022-09-01T10:29:50;26.50;64.70
62363;DHT22;48396;48.426;1.500;2022-09-01T10:32:19;26.50;64.30
62363;DHT22;48396;48.426;1.500;2022-09-01T10:34:45;26.50;63.90
62363;DHT22;48396;48.426;1.500;2022-09-01T10:37:11;26.40;63.60
62363;DHT22;48396;48.426;1.500;2022-09-01T10:42:25;26.50;63.30
62363;DHT22;48396;48.426;1.500;2022-09-01T10:44:58;26.50;63.50
62363;DHT22;48396;48.426;1.500;2022-09-01T10:47:27;26.60;63.50
62363;DHT22;48396;48.426;1.500;2022-09-01T10:50:05;26.70;63.30
62363;DHT22;48396;48.426;1.500;2022-09-01T10:57:49;26.90;62.40
62363;DHT22;48396;48.426;1.500;2022-09-01T11:03:06;27.00;62.10
62363;DHT22;48396;48.426;1.500;2022-09-01T11:05:55;27.00;61.60
62363;DHT22;48396;48.426;1.500;2022-09-01T11:08:21;26.90;60.10
62363;DHT22;48396;48.426;1.500;2022-09-01T11:10:50;26.90;61.10
62363;DHT22;48396;48.426;1.500;2022-09-01T11:18:46;27.00;59.90
62363;DHT22;48396;48.426;1.500;2022-09-01T11:21:25;27.20;60.20
62363;DHT22;48396;48.426;1.500;2022-09-01T11:26:45;27.30;59.50
62363;DHT22;48396;48.426;1.500;2022-09-01T11:31:56;27.30;56.40
62363;DHT22;48396;48.426;1.500;2022-09-01T11:34:22;27.20;55.20
62363;DHT22;48396;48.426;1.500;2022-09-01T11:41:56;27.40;58.10
62363;DHT22;48396;48.426;1.500;2022-09-01T11:46:51;27.60;57.40
62363;DHT22;48396;48.426;1.500;2022-09-01T11:49:29;27.60;56.40
62363;DHT22;48396;48.426;1.500;2022-09-01T11:51:56;27.60;56.30
62363;DHT22;48396;48.426;1.500;2022-09-01T11:54:23;27.60;57.40
62363;DHT22;48396;48.426;1.500;2022-09-01T11:56:49;27.70;56.50
62363;DHT22;48396;48.426;1.500;2022-09-01T11:59:28;27.70;57.30
62363;DHT22;48396;48.426;1.500;2022-09-01T12:01:57;27.80;57.10
62363;DHT22;48396;48.426;1.500;2022-09-01T12:04:24;27.90;56.70
62363;DHT22;48396;48.426;1.500;2022-09-01T12:07:05;28.00;56.70
62363;DHT22;48396;48.426;1.500;2022-09-01T12:09:40;28.10;56.30
62363;DHT22;48396;48.426;1.500;2022-09-01T12:12:07;28.10;56.90
62363;DHT22;48396;48.426;1.500;2022-09-01T12:15:00;28.30;56.90
62363;DHT22;48396;48.426;1.500;2022-09-01T12:17:26;28.20;54.70
62363;DHT22;48396;48.426;1.500;2022-09-01T12:19:51;28.30;54.50
62363;DHT22;48396;48.426;1.500;2022-09-01T12:22:19;28.30;54.10
62363;DHT22;48396;48.426;1.500;2022-09-01T12:24:47;28.30;53.80
62363;DHT22;48396;48.426;1.500;2022-09-01T12:27:13;28.40;52.90
62363;DHT22;48396;48.426;1.500;2022-09-01T12:29:39;28.40;53.30
62363;DHT22;48396;48.426;1.500;2022-09-01T12:32:04;28.50;53.80
62363;DHT22;48396;48.426;1.500;2022-09-01T12:39:41;28.70;52.00
62363;DHT22;48396;48.426;1.500;2022-09-01T12:47:04;28.80;51.00
62363;DHT22;48396;48.426;1.500;2022-09-01T12:54:34;28.70;50.00
62363;DHT22;48396;48.426;1.500;2022-09-01T12:57:00;28.80;50.40
62363;DHT22;48396;48.426;1.500;2022-09-01T12:59:26;28.80;49.30
62363;DHT22;48396;48.426;1.500;2022-09-01T13:01:51;28.90;49.60
62363;DHT22;48396;48.426;1.500;2022-09-01T13:06:47;29.10;48.70
62363;DHT22;48396;48.426;1.500;2022-09-01T13:09:13;29.10;48.10
62363;DHT22;48396;48.426;1.500;2022-09-01T13:11:39;29.30;49.70
62363;DHT22;48396;48.426;1.500;2022-09-01T13:14:06;29.30;49.30
62363;DHT22;48396;48.426;1.500;2022-09-01T13:16:32;29.40;49.30
62363;DHT22;48396;48.426;1.500;2022-09-01T13:18:59;29.50;48.70
62363;DHT22;48396;48.426;1.500;2022-09-01T13:21:25;29.50;46.90
62363;DHT22;48396;48.426;1.500;2022-09-01T13:23:52;29.50;49.20
62363;DHT22;48396;48.426;1.500;2022-09-01T13:26:17;29.60;53.70
62363;DHT22;48396;48.426;1.500;2022-09-01T13:28:43;29.70;48.40
62363;DHT22;48396;48.426;1.500;2022-09-01T13:31:10;29.80;49.30
62363;DHT22;48396;48.426;1.500;2022-09-01T13:33:36;29.70;47.10
62363;DHT22;48396;48.426;1.500;2022-09-01T13:36:02;29.70;47.50
62363;DHT22;48396;48.426;1.500;2022-09-01T13:38:28;29.60;50.80
62363;DHT22;48396;48.426;1.500;2022-09-01T13:40:53;29.60;46.50
62363;DHT22;48396;48.426;1.500;2022-09-01T13:43:20;29.60;46.70
62363;DHT22;48396;48.426;1.500;2022-09-01T13:45:46;29.70;48.20
62363;DHT22;48396;48.426;1.500;2022-09-01T13:48:12;29.70;48.20
62363;DHT22;48396;48.426;1.500;2022-09-01T13:50:38;29.80;47.70
62363;DHT22;48396;48.426;1.500;2022-09-01T13:53:04;29.80;46.80
62363;DHT22;48396;48.426;1.500;2022-09-01T13:55:31;29.80;45.30
62363;DHT22;48396;48.426;1.500;2022-09-01T13:57:58;29.60;45.90
62363;DHT22;48396;48.426;1.500;2022-09-01T14:00:25;29.70;45.80
62363;DHT22;48396;48.426;1.500;2022-09-01T14:02:52;29.70;46.90
62363;DHT22;48396;48.426;1.500;2022-09-01T14:05:19;29.80;48.60
62363;DHT22;48396;48.426;1.500;2022-09-01T14:07:45;29.90;50.10
62363;DHT22;48396;48.426;1.500;2022-09-01T14:10:11;30.00;49.40
62363;DHT22;48396;48.426;1.500;2022-09-01T14:12:38;30.00;50.00
62363;DHT22;48396;48.426;1.500;2022-09-01T14:15:06;30.00;49.40
62363;DHT22;48396;48.426;1.500;2022-09-01T14:17:33;30.00;47.30
62363;DHT22;48396;48.426;1.500;2022-09-01T14:19:58;30.00;48.80
62363;DHT22;48396;48.426;1.500;2022-09-01T14:22:25;30.00;47.90
62363;DHT22;48396;48.426;1.500;2022-09-01T14:24:51;30.00;48.40
62363;DHT22;48396;48.426;1.500;2022-09-01T14:27:16;30.10;49.50
62363;DHT22;48396;48.426;1.500;2022-09-01T14:29:42;30.10;49.50
62363;DHT22;48396;48.426;1.500;2022-09-01T14:32:12;30.20;49.70
62363;DHT22;48396;48.426;1.500;2022-09-01T14:34:38;30.30;46.80
62363;DHT22;48396;48.426;1.500;2022-09-01T14:37:03;30.30;48.40
62363;DHT22;48396;48.426;1.500;2022-09-01T14:39:29;30.40;47.10
62363;DHT22;48396;48.426;1.500;2022-09-01T14:41:55;30.40;46.50
62363;DHT22;48396;48.426;1.500;2022-09-01T14:44:21;30.50;45.50
62363;DHT22;48396;48.426;1.500;2022-09-01T14:46:46;30.50;46.40
62363;DHT22;48396;48.426;1.500;2022-09-01T14:49:13;30.70;46.80
62363;DHT22;48396;48.426;1.500;2022-09-01T14:51:40;30.70;45.80
62363;DHT22;48396;48.426;1.500;2022-09-01T14:54:06;30.70;45.80
62363;DHT22;48396;48.426;1.500;2022-09-01T14:56:31;30.60;43.90
62363;DHT22;48396;48.426;1.500;2022-09-01T14:58:57;30.60;45.20
62363;DHT22;48396;48.426;1.500;2022-09-01T15:01:25;30.50;44.50
62363;DHT22;48396;48.426;1.500;2022-09-01T15:03:51;30.40;43.50
62363;DHT22;48396;48.426;1.500;2022-09-01T15:06:17;30.40;44.50
62363;DHT22;48396;48.426;1.500;2022-09-01T15:08:43;30.30;43.90
62363;DHT22;48396;48.426;1.500;2022-09-01T15:11:09;30.30;44.70
62363;DHT22;48396;48.426;1.500;2022-09-01T15:13:35;30.30;44.50
62363;DHT22;48396;48.426;1.500;2022-09-01T15:16:01;30.30;43.10
62363;DHT22;48396;48.426;1.500;2022-09-01T15:18:27;30.40;44.20
62363;DHT22;48396;48.426;1.500;2022-09-01T15:20:52;30.40;43.70
62363;DHT22;48396;48.426;1.500;2022-09-01T15:23:20;30.40;43.70
62363;DHT22;48396;48.426;1.500;2022-09-01T15:25:46;30.40;43.90
62363;DHT22;48396;48.426;1.500;2022-09-01T15:28:12;30.40;43.50
62363;DHT22;48396;48.426;1.500;2022-09-01T15:30:38;30.40;43.70
62363;DHT22;48396;48.426;1.500;2022-09-01T15:33:04;30.50;43.30
62363;DHT22;48396;48.426;1.500;2022-09-01T15:35:30;30.50;43.50
62363;DHT22;48396;48.426;1.500;2022-09-01T15:37:56;30.60;43.80
62363;DHT22;48396;48.426;1.500;2022-09-01T15:40:22;30.70;43.40
62363;DHT22;48396;48.426;1.500;2022-09-01T15:42:49;30.80;44.00
62363;DHT22;48396;48.426;1.500;2022-09-01T15:45:16;30.80;43.60
62363;DHT22;48396;48.426;1.500;2022-09-01T15:47:42;30.60;43.50
62363;DHT22;48396;48.426;1.500;2022-09-01T15:50:09;30.60;44.10
62363;DHT22;48396;48.426;1.500;2022-09-01T15:52:45;30.60;43.80
62363;DHT22;48396;48.426;1.500;2022-09-01T15:55:12;30.60;43.30
62363;DHT22;48396;48.426;1.500;2022-09-01T15:57:37;30.60;43.50
62363;DHT22;48396;48.426;1.500;2022-09-01T16:00:03;30.60;43.90
62363;DHT22;48396;48.426;1.500;2022-09-01T16:02:30;30.50;43.60
62363;DHT22;48396;48.426;1.500;2022-09-01T16:05:21;30.40;43.70
62363;DHT22;48396;48.426;1.500;2022-09-01T16:07:46;30.40;43.30
62363;DHT22;48396;48.426;1.500;2022-09-01T16:10:12;30.40;43.70
62363;DHT22;48396;48.426;1.500;2022-09-01T16:12:39;30.40;43.40
62363;DHT22;48396;48.426;1.500;2022-09-01T16:15:09;30.30;43.20
62363;DHT22;48396;48.426;1.500;2022-09-01T16:20:13;30.30;43.50
62363;DHT22;48396;48.426;1.500;2022-09-01T16:22:47;30.30;43.50
62363;DHT22;48396;48.426;1.500;2022-09-01T16:25:24;30.30;43.70
62363;DHT22;48396;48.426;1.500;2022-09-01T16:27:50;30.30;43.70
62363;DHT22;48396;48.426;1.500;2022-09-01T16:30:20;30.20;43.60
62363;DHT22;48396;48.426;1.500;2022-09-01T16:32:46;30.20;43.50
62363;DHT22;48396;48.426;1.500;2022-09-01T16:35:13;30.20;43.60
62363;DHT22;48396;48.426;1.500;2022-09-01T17:03:15;29.80;42.20
62363;DHT22;48396;48.426;1.500;2022-09-01T17:08:10;29.80;42.50
62363;DHT22;48396;48.426;1.500;2022-09-01T17:10:40;29.80;42.70
62363;DHT22;48396;48.426;1.500;2022-09-01T17:13:17;29.80;42.70
62363;DHT22;48396;48.426;1.500;2022-09-01T17:15:47;29.80;42.50
62363;DHT22;48396;48.426;1.500;2022-09-01T17:18:16;29.80;42.80
62363;DHT22;48396;48.426;1.500;2022-09-01T17:20:44;29.80;42.90
62363;DHT22;48396;48.426;1.500;2022-09-01T17:23:12;29.80;43.00
62363;DHT22;48396;48.426;1.500;2022-09-01T17:25:42;29.80;42.80